Time;durP1;ratioP1;P1;durP2;ratioP2;P2;SDS_P1;SDS_P2;PMS_P1;PMS_P2;Temp;Humidity;BMP_temperature;BMP_pressure;BME280_temperature;BME280_humidity;BME280_pressure;Samples;Min_cycle;Max_cycle;Signal;HPM_P1;HPM_P2
2022/07/27 00:00:53;;;;;;;4.72;1.58;;;12.20;93.70;;;;;;5040306;28;20091;-76
2022/07/27 00:03:22;;;;;;;4.60;1.05;;;12.30;93.20;;;;;;5039722;28;20025;-76
2022/07/27 00:05:49;;;;;;;1.80;1.02;;;12.30;93.30;;;;;;5039338;28;20082;-73
2022/07/27 00:08:19;;;;;;;4.32;1.30;;;12.40;93.20;;;;;;5040373;28;20021;-75
2022/07/27 00:10:47;;;;;;;3.88;1.15;;;12.50;93.20;;;;;;5040004;28;20086;-73
2022/07/27 00:13:14;;;;;;;2.47;1.08;;;12.50;92.70;;;;;;5040591;28;20022;-75
2022/07/27 00:15:42;;;;;;;3.63;0.90;;;12.60;92.80;;;;;;5040822;28;20466;-72
2022/07/27 00:18:10;;;;;;;5.30;1.67;;;12.70;92.80;;;;;;5040200;28;20086;-73
2022/07/27 00:20:38;;;;;;;2.70;1.23;;;12.90;92.80;;;;;;5040330;28;20052;-71
2022/07/27 00:23:06;;;;;;;3.65;1.40;;;12.90;93.20;;;;;;5039755;28;20017;-73
2022/07/27 00:25:34;;;;;;;3.05;0.93;;;13.00;92.30;;;;;;5040421;28;20406;-73
2022/07/27 00:28:01;;;;;;;3.00;0.98;;;13.10;92.60;;;;;;5040515;28;20036;-74
2022/07/27 00:30:28;;;;;;;1.88;0.85;;;13.10;91.90;;;;;;5041272;28;20106;-71
2022/07/27 00:32:56;;;;;;;4.53;1.25;;;13.20;91.60;;;;;;5021926;28;20543;-71
2022/07/27 00:35:24;;;;;;;2.20;0.90;;;13.40;91.60;;;;;;5039973;28;20025;-71
2022/07/27 00:37:51;;;;;;;3.90;0.88;;;13.40;91.10;;;;;;5039647;28;20040;-73
2022/07/27 00:40:18;;;;;;;3.72;0.90;;;13.40;91.00;;;;;;5040028;28;20095;-73
2022/07/27 00:42:46;;;;;;;3.72;0.98;;;13.50;90.50;;;;;;5039839;28;20110;-71
2022/07/27 00:45:13;;;;;;;3.45;1.20;;;13.60;90.30;;;;;;5039212;28;20028;-74
2022/07/27 00:47:40;;;;;;;3.85;0.85;;;13.70;90.10;;;;;;5040725;28;20322;-72
2022/07/27 00:50:08;;;;;;;2.67;1.00;;;13.70;90.40;;;;;;5038074;28;20052;-77
2022/07/27 00:52:37;;;;;;;3.92;1.50;;;13.90;90.60;;;;;;5041127;28;20063;-76
2022/07/27 00:55:06;;;;;;;2.58;0.75;;;14.00;90.40;;;;;;5038612;28;20033;-76
2022/07/27 00:57:33;;;;;;;3.95;1.70;;;14.10;90.00;;;;;;5040436;28;20095;-72
2022/07/27 01:00:01;;;;;;;3.38;0.80;;;14.10;88.80;;;;;;5038888;28;20023;-74
2022/07/27 01:02:28;;;;;;;2.83;0.93;;;14.10;89.50;;;;;;5021569;28;20035;-72
2022/07/27 01:04:55;;;;;;;4.00;1.10;;;14.20;89.40;;;;;;5039416;28;20025;-72
2022/07/27 01:07:23;;;;;;;5.78;1.20;;;14.30;88.90;;;;;;5039293;28;20021;-73
2022/07/27 01:09:57;;;;;;;5.15;1.13;;;14.40;88.40;;;;;;5040386;28;20022;-72
2022/07/27 01:12:27;;;;;;;4.15;0.82;;;14.50;88.10;;;;;;5039340;28;20029;-72
2022/07/27 01:14:56;;;;;;;3.33;1.02;;;14.50;87.00;;;;;;5039266;28;20025;-74
2022/07/27 01:17:25;;;;;;;3.97;0.80;;;14.60;87.20;;;;;;5038941;28;20037;-77
2022/07/27 01:19:53;;;;;;;5.85;1.60;;;14.80;86.60;;;;;;5039828;28;20035;-73
2022/07/27 01:22:20;;;;;;;2.55;0.82;;;14.80;86.30;;;;;;5038135;28;20025;-72
2022/07/27 01:24:49;;;;;;;2.42;0.80;;;14.90;85.80;;;;;;5039856;28;20021;-72
2022/07/27 01:27:16;;;;;;;3.83;1.08;;;14.90;84.90;;;;;;5037511;28;20493;-73
2022/07/27 01:29:44;;;;;;;2.65;0.70;;;15.00;85.90;;;;;;5040409;28;20100;-75
2022/07/27 01:32:11;;;;;;;3.60;1.63;;;15.10;84.10;;;;;;5038243;28;20055;-74
2022/07/27 01:34:38;;;;;;;4.38;0.90;;;15.10;85.60;;;;;;5039961;28;20446;-72
2022/07/27 01:37:06;;;;;;;4.60;1.42;;;15.20;84.50;;;;;;5037936;28;20397;-72
2022/07/27 01:39:33;;;;;;;4.43;0.75;;;15.30;84.00;;;;;;5021058;28;20393;-72
2022/07/27 01:42:02;;;;;;;2.85;0.70;;;15.30;84.10;;;;;;5039216;28;20025;-73
2022/07/27 01:44:29;;;;;;;2.38;1.00;;;15.50;84.30;;;;;;5038819;28;20024;-72
2022/07/27 01:46:57;;;;;;;2.65;0.95;;;15.60;84.10;;;;;;5039515;28;20032;-74
2022/07/27 01:49:24;;;;;;;4.75;1.05;;;15.70;83.20;;;;;;5037846;28;20021;-72
2022/07/27 01:51:51;;;;;;;3.13;1.15;;;15.80;83.00;;;;;;5039945;28;20466;-71
2022/07/27 01:54:19;;;;;;;2.65;0.70;;;15.90;82.50;;;;;;5037299;28;20025;-73
2022/07/27 01:56:46;;;;;;;2.78;0.80;;;16.00;81.90;;;;;;5039563;28;20112;-72
2022/07/27 01:59:13;;;;;;;2.95;1.08;;;16.10;81.90;;;;;;5038456;28;20021;-72
2022/07/27 02:01:41;;;;;;;3.30;1.00;;;16.30;81.90;;;;;;5038947;28;20108;-72
2022/07/27 02:04:08;;;;;;;3.08;0.90;;;16.30;81.50;;;;;;5037664;28;20032;-71
2022/07/27 02:06:35;;;;;;;3.83;1.20;;;16.50;81.40;;;;;;5039080;28;20087;-72
2022/07/27 02:09:02;;;;;;;2.55;0.90;;;16.70;81.30;;;;;;5039477;28;21206;-74
2022/07/27 02:14:15;;;;;;;3.47;1.55;;;16.80;80.50;;;;;;5038228;28;20082;-72
2022/07/27 02:16:42;;;;;;;5.55;1.38;;;16.80;80.10;;;;;;5038873;28;20086;-73
2022/07/27 02:19:10;;;;;;;3.53;0.80;;;16.90;80.30;;;;;;5038075;28;20028;-72
2022/07/27 02:21:37;;;;;;;4.47;0.98;;;17.10;79.00;;;;;;5038482;28;20445;-73
2022/07/27 02:24:05;;;;;;;6.55;1.33;;;17.10;79.70;;;;;;5039025;28;20040;-74
2022/07/27 02:26:32;;;;;;;3.53;1.02;;;17.20;79.30;;;;;;5038146;28;20021;-73
2022/07/27 02:28:59;;;;;;;2.78;0.90;;;17.20;78.10;;;;;;5043513;28;20021;-75
2022/07/27 02:31:26;;;;;;;2.80;0.80;;;17.20;78.90;;;;;;5040903;28;20021;-72
2022/07/27 02:33:54;;;;;;;3.10;0.70;;;17.30;79.20;;;;;;5043566;28;20017;-72
2022/07/27 02:36:21;;;;;;;3.05;0.82;;;17.40;78.70;;;;;;5041418;28;20029;-71
2022/07/27 02:38:48;;;;;;;3.83;0.82;;;17.50;79.40;;;;;;5043046;28;20045;-72
2022/07/27 02:41:16;;;;;;;4.70;1.17;;;17.70;78.40;;;;;;5041529;28;20025;-73
2022/07/27 02:43:43;;;;;;;3.17;0.90;;;18.00;78.30;;;;;;5042129;28;20894;-72
2022/07/27 02:46:10;;;;;;;3.85;1.10;;;18.30;77.10;;;;;;5042396;28;20358;-73
2022/07/27 02:48:38;;;;;;;3.67;1.25;;;18.50;76.60;;;;;;5042135;28;20029;-72
2022/07/27 02:51:05;;;;;;;4.60;1.00;;;18.70;77.20;;;;;;5043421;28;20021;-73
2022/07/27 02:53:32;;;;;;;2.42;0.70;;;19.00;75.60;;;;;;5040240;28;20056;-73
2022/07/27 02:56:00;;;;;;;5.55;1.00;;;19.30;74.20;;;;;;5042922;28;20024;-72
2022/07/27 02:58:27;;;;;;;4.07;1.13;;;19.40;74.40;;;;;;5040740;28;20052;-73
2022/07/27 03:00:54;;;;;;;2.42;0.80;;;19.60;73.80;;;;;;5042687;28;20020;-73
2022/07/27 03:03:21;;;;;;;3.83;1.20;;;19.90;74.30;;;;;;5023756;28;20525;-72
2022/07/27 03:05:49;;;;;;;3.55;1.10;;;20.20;73.90;;;;;;5041115;28;20716;-79
2022/07/27 03:08:19;;;;;;;2.08;0.98;;;20.50;72.60;;;;;;5041309;28;20025;-77
2022/07/27 03:10:46;;;;;;;4.60;1.13;;;20.60;71.90;;;;;;5023329;28;20478;-74
2022/07/27 03:13:13;;;;;;;3.35;0.63;;;20.90;71.10;;;;;;5042385;28;20017;-73
2022/07/27 03:15:41;;;;;;;4.40;0.70;;;21.60;69.90;;;;;;5040584;28;20397;-73
2022/07/27 03:18:08;;;;;;;3.30;0.70;;;21.70;68.30;;;;;;5042547;28;20033;-72
2022/07/27 03:20:35;;;;;;;3.17;0.90;;;21.70;67.90;;;;;;5039696;28;20029;-74
2022/07/27 03:23:03;;;;;;;2.65;0.85;;;21.60;68.00;;;;;;5042732;28;20032;-72
2022/07/27 03:25:30;;;;;;;4.68;1.00;;;21.60;70.30;;;;;;5040657;28;20021;-72
2022/07/27 03:27:57;;;;;;;2.67;1.23;;;21.90;68.80;;;;;;5042208;28;20025;-73
2022/07/27 03:30:25;;;;;;;1.38;0.47;;;22.50;67.00;;;;;;5041062;28;20020;-72
2022/07/27 03:32:52;;;;;;;3.00;0.77;;;23.00;66.70;;;;;;5040752;28;20055;-74
2022/07/27 03:35:19;;;;;;;2.50;0.80;;;23.50;64.20;;;;;;5042471;28;20057;-74
2022/07/27 03:37:46;;;;;;;3.13;1.00;;;23.50;65.00;;;;;;5039989;28;20059;-75
2022/07/27 03:40:14;;;;;;;2.70;0.80;;;23.90;64.60;;;;;;5042672;28;20105;-76
2022/07/27 03:42:41;;;;;;;3.38;0.80;;;24.20;61.70;;;;;;5039486;28;20129;-72
2022/07/27 03:45:09;;;;;;;2.88;0.75;;;24.20;61.50;;;;;;5042342;28;20477;-72
2022/07/27 03:47:36;;;;;;;2.60;0.75;;;24.10;61.90;;;;;;5039852;28;20672;-73
2022/07/27 03:50:04;;;;;;;3.67;0.90;;;24.50;61.90;;;;;;5041965;28;20021;-73
2022/07/27 03:52:32;;;;;;;3.13;0.90;;;24.80;61.40;;;;;;5040781;28;20035;-73
2022/07/27 03:54:59;;;;;;;3.70;1.15;;;25.00;60.50;;;;;;5040607;28;20005;-73
2022/07/27 03:57:27;;;;;;;4.60;0.70;;;25.30;60.50;;;;;;5040409;28;20041;-75
2022/07/27 03:59:54;;;;;;;2.22;0.60;;;25.50;59.00;;;;;;5022360;28;20025;-75
2022/07/27 04:02:21;;;;;;;2.63;0.70;;;25.50;58.30;;;;;;5041098;28;20473;-77
2022/07/27 04:04:48;;;;;;;4.20;0.93;;;25.70;58.70;;;;;;5040466;28;20096;-76
2022/07/27 04:07:16;;;;;;;3.22;0.68;;;25.90;57.30;;;;;;5041731;28;20025;-76
2022/07/27 04:09:43;;;;;;;1.77;0.55;;;25.90;57.60;;;;;;5038774;28;20081;-75
2022/07/27 04:12:10;;;;;;;2.90;0.70;;;25.90;56.10;;;;;;5041817;28;20477;-75
2022/07/27 04:14:38;;;;;;;2.80;0.70;;;25.70;56.30;;;;;;5039765;28;20048;-72
2022/07/27 04:17:05;;;;;;;2.40;0.70;;;25.50;57.00;;;;;;5041547;28;20035;-71
2022/07/27 04:19:34;;;;;;;2.17;0.70;;;25.50;56.70;;;;;;5040145;28;20209;-72
2022/07/27 04:22:02;;;;;;;3.13;0.70;;;25.30;56.00;;;;;;5040057;28;20067;-73
2022/07/27 04:24:29;;;;;;;2.20;0.63;;;25.20;56.40;;;;;;5022491;28;20111;-74
2022/07/27 04:26:56;;;;;;;2.45;0.63;;;25.00;56.60;;;;;;5040100;28;20489;-74
2022/07/27 04:29:24;;;;;;;3.08;0.80;;;24.50;57.30;;;;;;5041348;28;20516;-74
2022/07/27 04:31:51;;;;;;;2.25;0.80;;;24.00;57.60;;;;;;5039163;28;20025;-73
2022/07/27 04:34:18;;;;;;;1.77;0.50;;;23.30;58.10;;;;;;5041365;28;20450;-76
2022/07/27 04:36:46;;;;;;;3.67;0.65;;;22.50;59.70;;;;;;5038887;28;20033;-73
2022/07/27 04:39:13;;;;;;;2.63;0.68;;;22.00;60.10;;;;;;5041121;28;20067;-76
2022/07/27 04:41:40;;;;;;;2.55;0.63;;;21.50;61.70;;;;;;5040481;28;20116;-72
2022/07/27 04:44:08;;;;;;;3.00;1.00;;;21.00;61.90;;;;;;5040423;28;20079;-71
2022/07/27 04:46:35;;;;;;;2.50;0.70;;;20.60;62.60;;;;;;5040785;28;20029;-73
2022/07/27 04:49:03;;;;;;;4.65;0.88;;;20.30;62.80;;;;;;5038093;28;20211;-71
2022/07/27 04:51:30;;;;;;;3.70;1.00;;;20.10;63.70;;;;;;5021841;28;20020;-71
2022/07/27 04:53:57;;;;;;;2.47;0.52;;;20.00;64.40;;;;;;5038514;28;20093;-71
2022/07/27 04:56:25;;;;;;;3.08;0.68;;;19.90;64.60;;;;;;5040901;28;20033;-70
2022/07/27 04:58:53;;;;;;;4.40;0.70;;;19.90;64.50;;;;;;5038075;28;20053;-70
2022/07/27 05:01:24;;;;;;;1.95;0.70;;;19.80;64.50;;;;;;5040543;28;20086;-71
2022/07/27 05:03:52;;;;;;;2.33;0.70;;;19.60;65.00;;;;;;5037458;28;20099;-72
2022/07/27 05:06:19;;;;;;;3.30;0.82;;;19.60;64.80;;;;;;5023025;28;20029;-71
2022/07/27 05:08:46;;;;;;;3.00;0.70;;;19.50;65.50;;;;;;5039748;28;20029;-73
2022/07/27 05:11:14;;;;;;;3.47;0.88;;;19.60;65.60;;;;;;5039877;28;20040;-70
2022/07/27 05:13:41;;;;;;;1.63;0.60;;;19.60;65.10;;;;;;5039972;28;20453;-71
2022/07/27 05:16:09;;;;;;;3.50;0.70;;;19.60;65.20;;;;;;5019618;28;20112;-71
2022/07/27 05:18:40;;;;;;;2.95;0.90;;;19.60;65.80;;;;;;5039622;28;20032;-72
2022/07/27 05:21:08;;;;;;;4.05;1.02;;;19.70;65.20;;;;;;5036884;28;20548;-70
2022/07/27 05:23:36;;;;;;;4.47;0.80;;;19.60;64.80;;;;;;5038860;28;20104;-73
2022/07/27 05:26:03;;;;;;;2.30;0.70;;;19.60;65.00;;;;;;5033514;28;20376;-71
2022/07/27 05:28:31;;;;;;;3.03;0.60;;;19.60;65.70;;;;;;5036316;28;20492;-72
2022/07/27 05:30:58;;;;;;;1.45;0.55;;;19.60;64.70;;;;;;5035368;28;20541;-74
2022/07/27 05:33:25;;;;;;;3.28;0.60;;;19.60;64.50;;;;;;5038393;28;20021;-74
2022/07/27 05:35:55;;;;;;;2.20;0.80;;;19.70;66.10;;;;;;5034636;28;20088;-77
2022/07/27 05:38:23;;;;;;;2.70;0.85;;;19.80;65.20;;;;;;5036620;28;20029;-76
2022/07/27 05:40:50;;;;;;;2.80;0.70;;;19.80;64.90;;;;;;5034460;28;20048;-72
2022/07/27 05:43:18;;;;;;;3.72;0.80;;;19.80;65.50;;;;;;5036966;28;20188;-78
2022/07/27 05:45:46;;;;;;;2.28;0.77;;;19.80;64.40;;;;;;5036950;28;20021;-73
2022/07/27 05:48:13;;;;;;;3.80;0.75;;;19.80;65.30;;;;;;5030325;28;20028;-75
2022/07/27 05:50:40;;;;;;;1.45;0.63;;;19.70;63.80;;;;;;5037969;28;20092;-74
2022/07/27 05:53:08;;;;;;;3.03;0.90;;;19.70;63.80;;;;;;5035524;28;20160;-75
2022/07/27 05:55:35;;;;;;;1.95;0.60;;;19.70;63.80;;;;;;5039069;28;20393;-74
2022/07/27 05:58:02;;;;;;;1.95;0.50;;;19.60;63.70;;;;;;5035113;28;20543;-74
2022/07/27 06:00:30;;;;;;;3.42;0.65;;;19.70;64.80;;;;;;5039235;28;20021;-75
2022/07/27 06:02:57;;;;;;;2.00;0.70;;;19.80;64.80;;;;;;5040507;28;20028;-74
2022/07/27 06:05:25;;;;;;;2.60;0.70;;;20.00;64.60;;;;;;5040808;28;20021;-73
2022/07/27 06:07:58;;;;;;;6.65;1.10;;;20.20;64.00;;;;;;5038469;28;20118;-78
2022/07/27 06:10:31;;;;;;;2.78;0.68;;;20.40;63.60;;;;;;5039233;28;20043;-76
2022/07/27 06:12:59;;;;;;;1.80;0.47;;;20.50;63.40;;;;;;5040908;28;20118;-74
2022/07/27 06:15:27;;;;;;;2.40;0.60;;;20.70;63.80;;;;;;5018779;28;20017;-76
2022/07/27 06:17:54;;;;;;;2.75;0.90;;;21.00;63.40;;;;;;5039362;28;20052;-75
2022/07/27 06:20:23;;;;;;;4.47;1.10;;;21.40;63.90;;;;;;5040059;28;20532;-74
2022/07/27 06:22:56;;;;;;;3.95;1.20;;;21.90;64.20;;;;;;5041153;28;20153;-74
2022/07/27 06:25:24;;;;;;;7.00;1.30;;;22.10;63.20;;;;;;5036863;28;20028;-75
2022/07/27 06:27:52;;;;;;;5.40;1.40;;;22.00;63.20;;;;;;5038829;28;20068;-72
2022/07/27 06:30:21;;;;;;;4.68;1.05;;;21.70;63.30;;;;;;5037140;28;20281;-74
2022/07/27 06:32:49;;;;;;;2.80;0.95;;;21.30;64.70;;;;;;5041240;28;20424;-73
2022/07/27 06:35:16;;;;;;;4.32;0.85;;;20.80;64.90;;;;;;5040885;28;20489;-73
2022/07/27 06:37:47;;;;;;;4.65;1.05;;;20.20;65.90;;;;;;5035970;28;20037;-73
2022/07/27 06:40:14;;;;;;;4.47;1.60;;;19.60;66.70;;;;;;5037419;28;20020;-73
2022/07/27 06:42:42;;;;;;;7.85;1.33;;;19.20;68.10;;;;;;5022199;28;20525;-72
2022/07/27 06:45:10;;;;;;;3.75;1.23;;;18.80;69.00;;;;;;5022209;28;20402;-74
2022/07/27 06:47:41;;;;;;;7.50;2.17;;;18.50;70.20;;;;;;5038574;28;20040;-73
2022/07/27 06:50:09;;;;;;;5.78;1.40;;;18.10;70.70;;;;;;5038237;28;20029;-71
2022/07/27 06:52:36;;;;;;;3.60;0.82;;;17.90;70.70;;;;;;5039309;28;20094;-74
2022/07/27 06:55:04;;;;;;;5.50;1.48;;;17.70;71.20;;;;;;5039201;28;20017;-73
2022/07/27 06:57:34;;;;;;;4.68;1.10;;;17.50;72.60;;;;;;5036068;28;20052;-72
2022/07/27 07:00:02;;;;;;;7.22;1.35;;;17.30;72.30;;;;;;5023903;28;20024;-75
2022/07/27 07:02:30;;;;;;;6.95;1.30;;;17.20;72.80;;;;;;5036261;28;20109;-72
2022/07/27 07:04:59;;;;;;;4.90;1.30;;;17.10;73.00;;;;;;5032217;28;20541;-72
2022/07/27 07:07:26;;;;;;;4.95;1.83;;;17.00;73.60;;;;;;5043921;28;20029;-73
2022/07/27 07:09:53;;;;;;;4.82;1.42;;;16.90;74.10;;;;;;5025870;28;20079;-74
2022/07/27 07:12:21;;;;;;;6.50;1.35;;;16.80;75.30;;;;;;5039221;28;20035;-75
2022/07/27 07:14:48;;;;;;;3.25;1.40;;;16.70;74.50;;;;;;5040666;28;20051;-74
2022/07/27 07:17:15;;;;;;;4.28;1.40;;;16.60;75.20;;;;;;5039367;28;20749;-75
2022/07/27 07:19:42;;;;;;;6.97;1.55;;;16.50;75.90;;;;;;5034519;28;20040;-76
2022/07/27 07:22:10;;;;;;;5.85;1.55;;;16.40;76.20;;;;;;5039869;28;20052;-75
2022/07/27 07:24:37;;;;;;;6.50;1.55;;;16.40;76.90;;;;;;5035209;28;20063;-75
2022/07/27 07:27:04;;;;;;;8.60;1.60;;;16.30;77.30;;;;;;5038268;28;20043;-72
2022/07/27 07:29:32;;;;;;;5.90;1.85;;;16.20;77.60;;;;;;5037092;28;20013;-73
2022/07/27 07:31:59;;;;;;;7.20;2.05;;;16.10;77.80;;;;;;5039631;28;20047;-75
2022/07/27 07:34:28;;;;;;;8.93;1.77;;;16.00;78.40;;;;;;5035524;28;20028;-74
2022/07/27 07:36:55;;;;;;;6.45;1.77;;;15.90;79.10;;;;;;5033717;28;20029;-76
2022/07/27 07:39:23;;;;;;;7.35;1.92;;;15.80;79.20;;;;;;5040522;28;20109;-74
2022/07/27 07:41:51;;;;;;;9.40;3.28;;;15.70;79.60;;;;;;5038843;28;20144;-74
2022/07/27 07:44:19;;;;;;;8.98;2.17;;;15.70;79.80;;;;;;5038636;28;20025;-74
2022/07/27 07:46:47;;;;;;;8.73;2.33;;;15.60;80.60;;;;;;5037306;28;20100;-76
2022/07/27 07:49:15;;;;;;;8.50;2.00;;;15.50;80.70;;;;;;5031845;28;20511;-73
2022/07/27 07:51:42;;;;;;;8.38;1.63;;;15.40;81.40;;;;;;5038384;28;20029;-72
2022/07/27 07:54:10;;;;;;;6.30;2.53;;;15.30;81.60;;;;;;5038566;28;20017;-74
2022/07/27 07:56:38;;;;;;;7.53;2.97;;;15.30;81.60;;;;;;5035165;28;20116;-72
2022/07/27 07:59:05;;;;;;;7.68;2.10;;;15.10;82.50;;;;;;5040906;28;20877;-73
2022/07/27 08:01:33;;;;;;;9.93;3.83;;;15.10;83.50;;;;;;5037344;28;20099;-75
2022/07/27 08:04:00;;;;;;;7.88;2.80;;;15.10;84.00;;;;;;5035270;28;20071;-73
2022/07/27 08:06:30;;;;;;;8.23;4.38;;;15.10;84.20;;;;;;5038142;28;20033;-73
2022/07/27 08:08:58;;;;;;;10.77;3.90;;;14.90;85.20;;;;;;5035706;28;20394;-73
2022/07/27 08:11:25;;;;;;;14.48;5.45;;;14.90;85.80;;;;;;5038911;28;20045;-77
2022/07/27 08:13:53;;;;;;;9.35;4.63;;;14.80;86.10;;;;;;5036987;28;20653;-77
2022/07/27 08:16:20;;;;;;;9.57;4.85;;;14.70;86.90;;;;;;5040415;28;20052;-73
2022/07/27 08:18:47;;;;;;;8.05;3.67;;;14.70;87.50;;;;;;5026418;28;20024;-77
2022/07/27 08:21:15;;;;;;;7.20;2.85;;;14.60;88.00;;;;;;5023552;28;20048;-75
2022/07/27 08:23:42;;;;;;;7.68;2.58;;;14.50;87.90;;;;;;5028395;28;20029;-78
2022/07/27 08:26:09;;;;;;;16.50;12.05;;;14.40;88.30;;;;;;5019338;28;20051;-77
2022/07/27 08:28:37;;;;;;;10.23;4.57;;;14.40;87.00;;;;;;5031400;28;20036;-78
2022/07/27 08:31:04;;;;;;;14.55;4.05;;;14.30;86.90;;;;;;5036959;28;20025;-76
2022/07/27 08:33:32;;;;;;;8.23;3.72;;;14.30;87.10;;;;;;5034999;28;20071;-73
2022/07/27 08:35:59;;;;;;;7.18;2.92;;;14.30;87.50;;;;;;5036624;28;20393;-74
2022/07/27 08:38:26;;;;;;;7.90;3.45;;;14.20;86.50;;;;;;5035005;28;20536;-73
2022/07/27 08:40:56;;;;;;;6.32;2.28;;;14.20;85.80;;;;;;5036511;28;20021;-74
2022/07/27 08:43:24;;;;;;;8.02;4.90;;;14.30;84.60;;;;;;5017394;28;20057;-76
2022/07/27 08:45:59;;;;;;;8.77;3.58;;;14.30;85.10;;;;;;5035173;28;20037;-73
2022/07/27 08:48:29;;;;;;;8.38;2.35;;;14.40;84.50;;;;;;5034556;28;20021;-73
2022/07/27 08:50:57;;;;;;;7.50;2.47;;;14.40;83.70;;;;;;5037572;28;20111;-73
2022/07/27 08:53:24;;;;;;;7.10;2.70;;;14.40;83.60;;;;;;5037835;28;20013;-74
2022/07/27 08:55:52;;;;;;;7.75;3.47;;;14.50;83.20;;;;;;5034971;28;20024;-73
2022/07/27 08:58:19;;;;;;;6.72;2.58;;;14.50;83.60;;;;;;5029653;28;20056;-73
2022/07/27 09:00:50;;;;;;;6.80;2.45;;;14.50;82.80;;;;;;5035348;28;20013;-74
2022/07/27 09:03:20;;;;;;;5.63;2.90;;;14.50;83.60;;;;;;5034552;28;20078;-74
2022/07/27 09:05:57;;;;;;;3.92;1.85;;;14.50;82.80;;;;;;5038889;28;20102;-76
2022/07/27 09:08:27;;;;;;;5.50;1.85;;;14.50;83.00;;;;;;5049907;28;20067;-73
2022/07/27 09:10:58;;;;;;;5.25;2.13;;;14.50;82.90;;;;;;5038577;28;20028;-76
2022/07/27 09:13:28;;;;;;;6.32;2.33;;;14.50;83.30;;;;;;5038053;28;20104;-73
2022/07/27 09:16:01;;;;;;;4.30;1.40;;;14.40;83.30;;;;;;5039222;28;20060;-75
2022/07/27 09:18:32;;;;;;;4.68;2.17;;;14.30;83.30;;;;;;5037754;28;20304;-75
2022/07/27 09:21:21;;;;;;;6.20;1.90;;;14.40;83.50;;;;;;5048078;28;20016;-73
2022/07/27 09:23:54;;;;;;;2.85;1.40;;;14.20;84.50;;;;;;5047768;28;20021;-73
2022/07/27 09:26:24;;;;;;;6.13;2.70;;;14.20;84.50;;;;;;5036915;28;20017;-72
2022/07/27 09:29:00;;;;;;;6.35;3.13;;;14.20;84.50;;;;;;5037377;28;20036;-74
2022/07/27 09:31:28;;;;;;;5.10;2.38;;;14.10;84.70;;;;;;5049317;28;20099;-74
2022/07/27 09:34:01;;;;;;;9.02;2.83;;;14.10;85.10;;;;;;5053261;28;20107;-72
2022/07/27 09:36:30;;;;;;;8.77;5.30;;;14.10;85.20;;;;;;5035171;28;20033;-72
2022/07/27 09:39:04;;;;;;;6.95;3.53;;;14.00;85.30;;;;;;5038716;28;20498;-73
2022/07/27 09:41:49;;;;;;;4.72;2.50;;;13.90;86.10;;;;;;5050804;28;20077;-72
2022/07/27 09:44:17;;;;;;;5.53;2.63;;;13.90;86.10;;;;;;5041414;28;20028;-73
2022/07/27 09:46:47;;;;;;;4.55;2.30;;;13.80;86.10;;;;;;5041948;28;20082;-73
2022/07/27 09:49:34;;;;;;;3.67;1.95;;;13.80;86.40;;;;;;5037509;28;20059;-73
2022/07/27 09:52:06;;;;;;;5.40;2.33;;;13.70;86.90;;;;;;5040413;28;20029;-75
2022/07/27 09:54:46;;;;;;;6.05;2.28;;;13.60;87.20;;;;;;5035926;28;20028;-76
2022/07/27 09:57:14;;;;;;;5.57;2.25;;;13.60;87.20;;;;;;5027745;28;20081;-76
2022/07/27 09:59:41;;;;;;;5.50;2.58;;;13.60;87.70;;;;;;5028690;28;20013;-75
2022/07/27 10:02:11;;;;;;;6.32;2.67;;;13.50;87.90;;;;;;5026623;28;20029;-72
2022/07/27 10:04:39;;;;;;;6.35;3.03;;;13.50;88.10;;;;;;5034240;28;20025;-73
2022/07/27 10:07:07;;;;;;;7.63;3.42;;;13.40;88.70;;;;;;5032798;28;20029;-73
2022/07/27 10:09:34;;;;;;;6.53;2.97;;;13.40;88.90;;;;;;5019953;28;20126;-74
2022/07/27 10:12:03;;;;;;;6.75;3.60;;;13.40;89.40;;;;;;5039165;28;20214;-74
2022/07/27 10:14:31;;;;;;;8.75;4.03;;;13.30;89.70;;;;;;5036998;28;20021;-73
2022/07/27 10:16:59;;;;;;;5.85;3.67;;;13.30;90.10;;;;;;5036853;28;20040;-75
2022/07/27 10:19:45;;;;;;;6.93;3.78;;;13.20;90.10;;;;;;5025072;28;20112;-75
2022/07/27 10:22:13;;;;;;;6.65;3.17;;;13.20;90.40;;;;;;5031539;28;20017;-75
2022/07/27 10:24:41;;;;;;;6.57;3.22;;;13.20;90.70;;;;;;5036023;28;20110;-73
2022/07/27 10:27:29;;;;;;;8.27;5.25;;;13.10;90.70;;;;;;5031084;28;20511;-74
2022/07/27 10:29:58;;;;;;;6.65;3.47;;;13.00;90.60;;;;;;5035945;28;20056;-77
2022/07/27 10:32:29;;;;;;;8.15;3.38;;;13.00;90.80;;;;;;5038776;28;20156;-75
2022/07/27 10:34:58;;;;;;;7.93;4.63;;;12.90;91.20;;;;;;5027144;28;20017;-74
2022/07/27 10:37:31;;;;;;;6.85;3.90;;;12.90;91.40;;;;;;5039373;28;20076;-78
2022/07/27 10:43:17;;;;;;;8.95;5.72;;;12.70;92.00;;;;;;5034439;28;20028;-75
2022/07/27 10:45:47;;;;;;;7.80;5.00;;;12.70;92.70;;;;;;5034409;28;20021;-75
2022/07/27 10:48:41;;;;;;;9.95;4.55;;;12.70;92.90;;;;;;5037842;28;20469;-75
2022/07/27 10:51:09;;;;;;;7.13;4.10;;;12.50;92.70;;;;;;5039174;28;20075;-75
2022/07/27 10:53:40;;;;;;;8.88;3.72;;;12.50;93.10;;;;;;5040885;28;20382;-75
2022/07/27 10:56:09;;;;;;;9.50;5.35;;;12.40;93.10;;;;;;5037559;28;20054;-73
2022/07/27 10:58:37;;;;;;;5.68;3.55;;;12.30;93.40;;;;;;5040259;28;20172;-76
2022/07/27 11:01:08;;;;;;;6.30;4.20;;;12.30;93.80;;;;;;5038902;28;20032;-76
2022/07/27 11:03:38;;;;;;;6.72;3.47;;;12.20;93.70;;;;;;5037729;28;20053;-75
2022/07/27 11:06:21;;;;;;;10.43;3.90;;;12.20;94.20;;;;;;5039146;28;20028;-74
2022/07/27 11:08:49;;;;;;;10.43;4.95;;;12.10;94.40;;;;;;5036668;28;20170;-76
2022/07/27 11:11:19;;;;;;;6.57;3.35;;;12.10;94.60;;;;;;5039098;28;20025;-73
2022/07/27 11:13:52;;;;;;;6.43;3.22;;;12.00;94.70;;;;;;5033924;28;20036;-75
2022/07/27 11:16:19;;;;;;;5.60;2.72;;;11.90;94.50;;;;;;5040849;28;20089;-72
2022/07/27 11:19:04;;;;;;;10.02;4.40;;;11.80;93.90;;;;;;5040170;28;20116;-75
2022/07/27 11:21:37;;;;;;;4.68;2.30;;;11.80;93.90;;;;;;5021630;28;20112;-75
2022/07/27 11:24:19;;;;;;;4.65;2.58;;;11.90;93.60;;;;;;5039868;28;20032;-71
2022/07/27 11:26:51;;;;;;;2.97;1.92;;;11.90;93.40;;;;;;5040862;28;20025;-74
2022/07/27 11:29:21;;;;;;;3.35;2.10;;;12.00;93.10;;;;;;5042779;28;20029;-72
2022/07/27 11:31:50;;;;;;;5.15;2.20;;;12.00;93.20;;;;;;5057444;28;20017;-73
2022/07/27 11:34:25;;;;;;;4.97;1.85;;;12.10;93.70;;;;;;5040866;28;20496;-75
2022/07/27 11:36:53;;;;;;;3.90;1.65;;;12.10;93.70;;;;;;5040169;28;20102;-75
2022/07/27 11:39:25;;;;;;;4.53;1.80;;;12.10;93.40;;;;;;5022820;28;20021;-74
2022/07/27 11:42:00;;;;;;;5.32;2.35;;;12.00;93.40;;;;;;5038369;28;20535;-75
2022/07/27 11:44:28;;;;;;;4.10;2.08;;;12.10;93.90;;;;;;5033286;28;20174;-75
2022/07/27 11:46:57;;;;;;;4.18;1.92;;;12.10;93.90;;;;;;5036384;28;20108;-75
2022/07/27 11:49:29;;;;;;;3.80;1.80;;;12.00;94.30;;;;;;5039294;28;20028;-74
2022/07/27 11:52:03;;;;;;;3.78;1.95;;;12.00;94.40;;;;;;5039143;28;20492;-75
2022/07/27 11:54:32;;;;;;;4.78;1.92;;;11.90;94.60;;;;;;5043293;28;20017;-78
2022/07/27 11:57:05;;;;;;;2.83;1.83;;;11.90;94.20;;;;;;5039244;28;20052;-78
2022/07/27 11:59:34;;;;;;;4.10;2.00;;;11.90;94.80;;;;;;5039709;28;20031;-77
2022/07/27 12:02:08;;;;;;;5.03;1.98;;;11.90;94.50;;;;;;5039582;28;20028;-75
2022/07/27 12:04:38;;;;;;;8.90;3.30;;;11.90;94.80;;;;;;5042335;28;20018;-75
2022/07/27 12:07:18;;;;;;;4.43;1.65;;;11.90;95.00;;;;;;5053937;28;20027;-74
2022/07/27 12:09:54;;;;;;;2.22;1.48;;;11.80;95.30;;;;;;5039438;28;20025;-75
2022/07/27 12:12:24;;;;;;;3.20;1.75;;;11.70;95.40;;;;;;5038586;28;20474;-77
2022/07/27 12:14:55;;;;;;;4.50;1.98;;;11.70;95.70;;;;;;5046519;28;20028;-74
2022/07/27 12:17:39;;;;;;;3.50;1.50;;;11.60;96.00;;;;;;5026305;28;20496;-75
2022/07/27 12:20:08;;;;;;;3.30;1.63;;;11.60;96.40;;;;;;5040018;28;20428;-75
2022/07/27 12:22:43;;;;;;;4.43;1.65;;;11.60;96.60;;;;;;5041528;28;20017;-75
2022/07/27 12:25:22;;;;;;;3.42;1.52;;;11.50;96.70;;;;;;5048662;28;20113;-74
2022/07/27 12:27:59;;;;;;;3.38;1.70;;;11.40;97.00;;;;;;5029968;28;20663;-79
2022/07/27 12:30:47;;;;;;;6.00;1.95;;;11.40;97.20;;;;;;5040298;28;20470;-77
2022/07/27 12:33:35;;;;;;;4.28;1.40;;;11.30;97.10;;;;;;5041409;28;20032;-75
2022/07/27 12:36:06;;;;;;;2.95;1.25;;;11.20;97.20;;;;;;5040747;28;20032;-76
2022/07/27 12:38:42;;;;;;;3.17;1.70;;;11.20;97.20;;;;;;5051792;28;20032;-75
2022/07/27 12:41:09;;;;;;;5.15;2.10;;;11.20;97.40;;;;;;5055608;28;20106;-74
2022/07/27 12:43:37;;;;;;;2.80;1.58;;;11.20;97.50;;;;;;5053766;28;20185;-73
2022/07/27 12:46:15;;;;;;;3.17;2.40;;;11.20;97.40;;;;;;5022784;28;20044;-75
2022/07/27 12:48:43;;;;;;;2.80;1.50;;;11.10;97.60;;;;;;5038875;28;20071;-77
2022/07/27 12:51:10;;;;;;;3.63;1.63;;;11.10;97.80;;;;;;5037417;28;20017;-77
2022/07/27 12:53:38;;;;;;;3.90;1.20;;;11.20;97.20;;;;;;5037958;28;20501;-75
2022/07/27 12:56:11;;;;;;;4.22;2.83;;;11.20;97.20;;;;;;5056540;28;20773;-75
2022/07/27 12:58:38;;;;;;;;;;;11.20;97.30;;;;;;5058283;28;20044;-74
2022/07/27 13:01:06;;;;;;;2.70;1.30;;;11.20;97.40;;;;;;5035252;28;20610;-74
2022/07/27 13:03:33;;;;;;;4.55;2.20;;;11.20;97.60;;;;;;5039636;28;20473;-74